PWSweather.com
Personal Weather Stations
Station Observations
719732
Ponferrada, PonferradaES 24411

PonferradaPonferradaES 24411

Lat: 42.5728, Lon: -6.6425

Elevation: 1676

Station Type: PCE-FWS 20 con garita Ambient Weather SRS100LX

www.meteo.spyfly.es

High Low Average
Temperature 46.4°F8.0°C 34.7°F1.5°C 40.6°F4.8°C
Dew Point 38.5°F3.6°C 31.0°F-0.6°C 35.3°F1.8°C
Winds 19.0 mph 30.6 kmh Calm Calm 6.0 mph WSW9.7 kmh WSW
Wind Gusts 31.1 mph50.1 kmh 1.6 mph2.6 kmh 14.0 mph22.5 kmh
Humidity 95% 65% 82%
Pressure 29.54 in1000.3 mb 29.12 in986.1 mb -
Precipitation 0.60 in15.2 mm - -
Hour Temp Dew Point Humidity Winds Wind Gusts Pressure Precip Precip Rate Daily Precip Total
12:00 AM 46.4°F8.0°C 37.5°F3.1°C 71% 3.8 mph WSW6.1 kmh WSW 10.7 mph17.2 kmh 29.33 in993.2 mb 0.00 in0.0 mm 0.00 in0.0 mm 0.46 in11.7 mm
12:05 AM 46.4°F8.0°C 37.2°F2.9°C 70% 6.9 mph SW11.1 kmh SW 10.7 mph17.2 kmh 29.32 in992.9 mb 0.00 in0.0 mm 0.00 in0.0 mm 0.46 in11.7 mm
12:10 AM 46.2°F7.9°C 37.3°F2.9°C 71% 4.5 mph WSW7.2 kmh WSW 10.7 mph17.2 kmh 29.32 in992.9 mb 0.00 in0.0 mm 0.00 in0.0 mm 0.46 in11.7 mm
12:15 AM 46.0°F7.8°C 37.5°F3.1°C 72% 5.4 mph NW8.7 kmh NW 10.7 mph17.2 kmh 29.32 in992.9 mb 0.00 in0.0 mm 0.00 in0.0 mm 0.46 in11.7 mm
12:20 AM 45.9°F7.7°C 37.4°F3.0°C 72% 3.1 mph WSW5.0 kmh WSW 8.3 mph13.4 kmh 29.31 in992.6 mb 0.00 in0.0 mm 0.00 in0.0 mm 0.46 in11.7 mm
12:25 AM 45.7°F7.6°C 37.2°F2.9°C 72% 4.5 mph SW7.2 kmh SW 10.7 mph17.2 kmh 29.31 in992.6 mb 0.00 in0.0 mm 0.00 in0.0 mm 0.46 in11.7 mm
12:30 AM 45.9°F7.7°C 37.4°F3.0°C 72% 7.6 mph SW12.2 kmh SW 12.1 mph19.5 kmh 29.31 in992.6 mb 0.00 in0.0 mm 0.00 in0.0 mm 0.46 in11.7 mm
12:35 AM 46.0°F7.8°C 37.2°F2.9°C 71% 9.8 mph SW15.8 kmh SW 15.2 mph24.5 kmh 29.31 in992.6 mb 0.00 in0.0 mm 0.00 in0.0 mm 0.46 in11.7 mm
12:40 AM 46.4°F8.0°C 36.8°F2.7°C 69% 4.5 mph SW7.2 kmh SW 15.2 mph24.5 kmh 29.30 in992.2 mb 0.00 in0.0 mm 0.00 in0.0 mm 0.46 in11.7 mm
12:45 AM 46.4°F8.0°C 36.8°F2.7°C 69% 8.3 mph SW13.4 kmh SW 15.2 mph24.5 kmh 29.30 in992.2 mb 0.00 in0.0 mm 0.00 in0.0 mm 0.46 in11.7 mm
12:50 AM 46.4°F8.0°C 36.4°F2.4°C 68% 3.1 mph SW5.0 kmh SW 15.2 mph24.5 kmh 29.29 in991.9 mb 0.00 in0.0 mm 0.00 in0.0 mm 0.46 in11.7 mm
12:55 AM 46.4°F8.0°C 36.4°F2.4°C 68% 4.5 mph WSW7.2 kmh WSW 10.7 mph17.2 kmh 29.29 in991.9 mb 0.00 in0.0 mm 0.00 in0.0 mm 0.46 in11.7 mm
01:00 AM 46.4°F8.0°C 36.4°F2.4°C 68% 3.8 mph WSW6.1 kmh WSW 9.8 mph15.8 kmh 29.29 in991.9 mb 0.00 in0.0 mm 0.00 in0.0 mm 0.00 in0.0 mm
01:05 AM 46.2°F7.9°C 36.3°F2.4°C 68% 6.0 mph WSW9.7 kmh WSW 10.7 mph17.2 kmh 29.29 in991.9 mb 0.00 in0.0 mm 0.00 in0.0 mm 0.00 in0.0 mm
01:10 AM 46.2°F7.9°C 35.9°F2.2°C 67% 8.3 mph WSW13.4 kmh WSW 13.6 mph21.9 kmh 29.29 in991.9 mb 0.00 in0.0 mm 0.00 in0.0 mm 0.00 in0.0 mm
01:15 AM 46.4°F8.0°C 36.0°F2.2°C 67% 5.4 mph W8.7 kmh W 13.6 mph21.9 kmh 29.29 in991.9 mb 0.00 in0.0 mm 0.00 in0.0 mm 0.00 in0.0 mm
01:20 AM 46.2°F7.9°C 35.9°F2.2°C 67% 7.6 mph W12.2 kmh W 14.5 mph23.3 kmh 29.29 in991.9 mb 0.00 in0.0 mm 0.00 in0.0 mm 0.00 in0.0 mm
01:25 AM 46.4°F8.0°C 36.0°F2.2°C 67% 9.8 mph WSW15.8 kmh WSW 17.4 mph28.0 kmh 29.29 in991.9 mb 0.00 in0.0 mm 0.00 in0.0 mm 0.00 in0.0 mm
01:30 AM 46.0°F7.8°C 36.1°F2.3°C 68% 15.9 mph W25.6 kmh W 25.1 mph40.4 kmh 29.28 in991.5 mb 0.00 in0.0 mm 0.00 in0.0 mm 0.00 in0.0 mm
01:35 AM 45.5°F7.5°C 36.7°F2.6°C 71% 6.0 mph WNW9.7 kmh WNW 27.3 mph43.9 kmh 29.28 in991.5 mb 0.00 in0.0 mm 0.00 in0.0 mm 0.00 in0.0 mm
01:40 AM 45.0°F7.2°C 36.5°F2.5°C 72% 7.6 mph WNW12.2 kmh WNW 27.3 mph43.9 kmh 29.28 in991.5 mb 0.00 in0.0 mm 0.00 in0.0 mm 0.00 in0.0 mm
01:45 AM 44.6°F7.0°C 36.5°F2.5°C 73% 5.4 mph WNW8.7 kmh WNW 21.3 mph34.3 kmh 29.27 in991.2 mb 0.00 in0.0 mm 0.00 in0.0 mm 0.00 in0.0 mm
01:50 AM 44.4°F6.9°C 37.0°F2.8°C 75% 7.6 mph NW12.2 kmh NW 13.0 mph20.9 kmh 29.27 in991.2 mb 0.00 in0.0 mm 0.00 in0.0 mm 0.00 in0.0 mm
01:55 AM 44.2°F6.8°C 36.8°F2.7°C 75% 6.9 mph NW11.1 kmh NW 11.4 mph18.3 kmh 29.27 in991.2 mb 0.00 in0.0 mm 0.00 in0.0 mm 0.00 in0.0 mm
02:00 AM 44.1°F6.7°C 37.0°F2.8°C 76% 6.9 mph WNW11.1 kmh WNW 14.5 mph23.3 kmh 29.27 in991.2 mb 0.00 in0.0 mm 0.00 in0.0 mm 0.00 in0.0 mm
02:05 AM 43.9°F6.6°C 37.1°F2.8°C 77% 10.7 mph WNW17.2 kmh WNW 14.5 mph23.3 kmh 29.27 in991.2 mb 0.00 in0.0 mm 0.00 in0.0 mm 0.00 in0.0 mm
02:10 AM 43.9°F6.6°C 37.5°F3.1°C 78% 8.3 mph W13.4 kmh W 14.5 mph23.3 kmh 29.27 in991.2 mb 0.00 in0.0 mm 0.00 in0.0 mm 0.00 in0.0 mm
02:15 AM 43.7°F6.5°C 37.3°F2.9°C 78% 11.4 mph W18.3 kmh W 16.8 mph27.0 kmh 29.27 in991.2 mb 0.00 in0.0 mm 0.00 in0.0 mm 0.00 in0.0 mm
02:20 AM 43.7°F6.5°C 37.6°F3.1°C 79% 10.7 mph WSW17.2 kmh WSW 20.6 mph33.2 kmh 29.27 in991.2 mb 0.00 in0.0 mm 0.00 in0.0 mm 0.00 in0.0 mm
02:25 AM 43.7°F6.5°C 37.6°F3.1°C 79% 3.8 mph WSW6.1 kmh WSW 20.6 mph33.2 kmh 29.26 in990.9 mb 0.00 in0.0 mm 0.00 in0.0 mm 0.00 in0.0 mm
02:30 AM 43.5°F6.4°C 37.4°F3.0°C 79% 6.0 mph SW9.7 kmh SW 17.4 mph28.0 kmh 29.26 in990.9 mb 0.00 in0.0 mm 0.00 in0.0 mm 0.00 in0.0 mm
02:35 AM 43.5°F6.4°C 37.4°F3.0°C 79% 9.2 mph WSW14.8 kmh WSW 15.9 mph25.6 kmh 29.26 in990.9 mb 0.00 in0.0 mm 0.00 in0.0 mm 0.00 in0.0 mm
02:40 AM 43.7°F6.5°C 37.3°F2.9°C 78% 9.2 mph WNW14.8 kmh WNW 15.9 mph25.6 kmh 29.25 in990.5 mb 0.00 in0.0 mm 0.00 in0.0 mm 0.00 in0.0 mm
02:45 AM 43.9°F6.6°C 37.1°F2.8°C 77% 6.0 mph WNW9.7 kmh WNW 15.9 mph25.6 kmh 29.25 in990.5 mb 0.00 in0.0 mm 0.00 in0.0 mm 0.00 in0.0 mm
02:50 AM 43.9°F6.6°C 36.8°F2.7°C 76% 3.1 mph W5.0 kmh W 13.6 mph21.9 kmh 29.25 in990.5 mb 0.00 in0.0 mm 0.00 in0.0 mm 0.00 in0.0 mm
02:55 AM 43.9°F6.6°C 36.8°F2.7°C 76% 7.6 mph SW12.2 kmh SW 13.0 mph20.9 kmh 29.25 in990.5 mb 0.00 in0.0 mm 0.00 in0.0 mm 0.00 in0.0 mm
03:00 AM 43.9°F6.6°C 37.1°F2.8°C 77% 7.6 mph SW12.2 kmh SW 14.5 mph23.3 kmh 29.25 in990.5 mb 0.00 in0.0 mm 0.00 in0.0 mm 0.00 in0.0 mm
03:05 AM 43.9°F6.6°C 36.8°F2.7°C 76% 9.8 mph SW15.8 kmh SW 16.8 mph27.0 kmh 29.25 in990.5 mb 0.00 in0.0 mm 0.00 in0.0 mm 0.00 in0.0 mm
03:10 AM 43.9°F6.6°C 36.8°F2.7°C 76% 7.6 mph SW12.2 kmh SW 16.8 mph27.0 kmh 29.25 in990.5 mb 0.00 in0.0 mm 0.00 in0.0 mm 0.00 in0.0 mm
03:15 AM 43.9°F6.6°C 36.5°F2.5°C 75% 19.0 mph SW30.6 kmh SW 31.1 mph50.1 kmh 29.25 in990.5 mb 0.00 in0.0 mm 0.00 in0.0 mm 0.00 in0.0 mm
03:20 AM 43.9°F6.6°C 36.5°F2.5°C 75% 14.5 mph SW23.3 kmh SW 31.1 mph50.1 kmh 29.24 in990.2 mb 0.00 in0.0 mm 0.00 in0.0 mm 0.00 in0.0 mm
03:25 AM 43.9°F6.6°C 35.8°F2.1°C 73% 9.8 mph SW15.8 kmh SW 31.1 mph50.1 kmh 29.24 in990.2 mb 0.00 in0.0 mm 0.00 in0.0 mm 0.00 in0.0 mm
03:30 AM 43.9°F6.6°C 35.8°F2.1°C 73% 10.7 mph WSW17.2 kmh WSW 26.6 mph42.8 kmh 29.24 in990.2 mb 0.00 in0.0 mm 0.00 in0.0 mm 0.00 in0.0 mm
03:35 AM 43.9°F6.6°C 35.4°F1.9°C 72% 15.2 mph WSW24.5 kmh WSW 23.5 mph37.8 kmh 29.24 in990.2 mb 0.00 in0.0 mm 0.00 in0.0 mm 0.00 in0.0 mm
03:40 AM 44.1°F6.7°C 35.3°F1.8°C 71% 11.4 mph W18.3 kmh W 23.5 mph37.8 kmh 29.24 in990.2 mb 0.00 in0.0 mm 0.00 in0.0 mm 0.00 in0.0 mm
03:45 AM 44.1°F6.7°C 34.9°F1.6°C 70% 10.7 mph WSW17.2 kmh WSW 22.1 mph35.6 kmh 29.24 in990.2 mb 0.00 in0.0 mm 0.00 in0.0 mm 0.00 in0.0 mm
03:50 AM 43.9°F6.6°C 34.4°F1.3°C 69% 9.2 mph W14.8 kmh W 22.1 mph35.6 kmh 29.24 in990.2 mb 0.00 in0.0 mm 0.00 in0.0 mm 0.00 in0.0 mm
03:55 AM 44.1°F6.7°C 34.2°F1.2°C 68% 9.8 mph W15.8 kmh W 19.7 mph31.7 kmh 29.24 in990.2 mb 0.00 in0.0 mm 0.00 in0.0 mm 0.00 in0.0 mm
04:00 AM 43.9°F6.6°C 34.0°F1.1°C 68% 4.5 mph W7.2 kmh W 17.4 mph28.0 kmh 29.23 in989.8 mb 0.00 in0.0 mm 0.00 in0.0 mm 0.00 in0.0 mm
04:05 AM 43.7°F6.5°C 33.8°F1.0°C 68% 6.0 mph W9.7 kmh W 17.4 mph28.0 kmh 29.22 in989.5 mb 0.00 in0.0 mm 0.00 in0.0 mm 0.00 in0.0 mm
04:10 AM 43.7°F6.5°C 33.8°F1.0°C 68% 4.5 mph W7.2 kmh W 13.6 mph21.9 kmh 29.22 in989.5 mb 0.00 in0.0 mm 0.00 in0.0 mm 0.00 in0.0 mm
04:15 AM 43.5°F6.4°C 33.7°F0.9°C 68% 3.8 mph WSW6.1 kmh WSW 10.7 mph17.2 kmh 29.21 in989.2 mb 0.00 in0.0 mm 0.00 in0.0 mm 0.00 in0.0 mm
04:20 AM 43.5°F6.4°C 34.0°F1.1°C 69% 9.2 mph SW14.8 kmh SW 15.2 mph24.5 kmh 29.20 in988.8 mb 0.00 in0.0 mm 0.00 in0.0 mm 0.00 in0.0 mm
04:25 AM 43.5°F6.4°C 34.0°F1.1°C 69% 6.9 mph WSW11.1 kmh WSW 15.2 mph24.5 kmh 29.20 in988.8 mb 0.00 in0.0 mm 0.00 in0.0 mm 0.00 in0.0 mm
04:30 AM 43.5°F6.4°C 34.4°F1.3°C 70% 12.1 mph WSW19.5 kmh WSW 22.1 mph35.6 kmh 29.19 in988.5 mb 0.00 in0.0 mm 0.00 in0.0 mm 0.00 in0.0 mm
04:35 AM 43.3°F6.3°C 34.9°F1.6°C 72% 4.5 mph SW7.2 kmh SW 22.1 mph35.6 kmh 29.19 in988.5 mb 0.00 in0.0 mm 0.00 in0.0 mm 0.00 in0.0 mm
04:40 AM 43.3°F6.3°C 34.9°F1.6°C 72% 7.6 mph WSW12.2 kmh WSW 20.6 mph33.2 kmh 29.19 in988.5 mb 0.00 in0.0 mm 0.00 in0.0 mm 0.00 in0.0 mm
04:45 AM 43.3°F6.3°C 34.9°F1.6°C 72% 11.4 mph WSW18.3 kmh WSW 22.1 mph35.6 kmh 29.19 in988.5 mb 0.00 in0.0 mm 0.00 in0.0 mm 0.00 in0.0 mm
04:50 AM 43.5°F6.4°C 35.1°F1.7°C 72% 7.6 mph W12.2 kmh W 22.1 mph35.6 kmh 29.19 in988.5 mb 0.00 in0.0 mm 0.00 in0.0 mm 0.00 in0.0 mm
04:55 AM 43.5°F6.4°C 35.1°F1.7°C 72% 8.3 mph WSW13.4 kmh WSW 19.0 mph30.6 kmh 29.19 in988.5 mb 0.00 in0.0 mm 0.00 in0.0 mm 0.00 in0.0 mm
05:00 AM 43.7°F6.5°C 34.9°F1.6°C 71% 4.5 mph SW7.2 kmh SW 19.0 mph30.6 kmh 29.18 in988.1 mb 0.00 in0.0 mm 0.00 in0.0 mm 0.00 in0.0 mm
05:05 AM 43.7°F6.5°C 34.2°F1.2°C 69% 6.0 mph WSW9.7 kmh WSW 19.7 mph31.7 kmh 29.17 in987.8 mb 0.00 in0.0 mm 0.00 in0.0 mm 0.00 in0.0 mm
05:10 AM 44.1°F6.7°C 33.8°F1.0°C 67% 7.6 mph WNW12.2 kmh WNW 19.7 mph31.7 kmh 29.17 in987.8 mb 0.00 in0.0 mm 0.00 in0.0 mm 0.00 in0.0 mm
05:15 AM 44.2°F6.8°C 33.6°F0.9°C 66% 8.3 mph W13.4 kmh W 19.7 mph31.7 kmh 29.16 in987.5 mb 0.00 in0.0 mm 0.00 in0.0 mm 0.00 in0.0 mm
05:20 AM 44.4°F6.9°C 33.8°F1.0°C 66% 9.8 mph W15.8 kmh W 22.8 mph36.7 kmh 29.17 in987.8 mb 0.00 in0.0 mm 0.00 in0.0 mm 0.00 in0.0 mm
05:25 AM 44.4°F6.9°C 33.4°F0.8°C 65% 13.6 mph W21.9 kmh W 27.3 mph43.9 kmh 29.18 in988.1 mb 0.00 in0.0 mm 0.00 in0.0 mm 0.00 in0.0 mm
05:30 AM 44.2°F6.8°C 33.6°F0.9°C 66% 10.7 mph WSW17.2 kmh WSW 27.3 mph43.9 kmh 29.18 in988.1 mb 0.00 in0.0 mm 0.00 in0.0 mm 0.00 in0.0 mm
05:35 AM 43.9°F6.6°C 34.7°F1.5°C 70% 18.3 mph WSW29.5 kmh WSW 31.1 mph50.1 kmh 29.19 in988.5 mb 0.00 in0.0 mm 0.00 in0.0 mm 0.00 in0.0 mm
05:40 AM 42.6°F5.9°C 35.6°F2.0°C 76% 13.6 mph WSW21.9 kmh WSW 31.1 mph50.1 kmh 29.19 in988.5 mb 0.01 in0.3 mm 0.12 in3.0 mm 0.01 in0.3 mm
05:45 AM 42.1°F5.6°C 35.7°F2.1°C 78% 10.7 mph WSW17.2 kmh WSW 24.4 mph39.3 kmh 29.19 in988.5 mb 0.02 in0.5 mm 0.12 in3.0 mm 0.02 in0.5 mm
05:50 AM 41.7°F5.4°C 36.0°F2.2°C 80% 10.7 mph W17.2 kmh W 21.3 mph34.3 kmh 29.19 in988.5 mb 0.04 in1.0 mm 0.24 in6.1 mm 0.04 in1.0 mm
05:55 AM 41.4°F5.2°C 36.3°F2.4°C 82% 9.2 mph W14.8 kmh W 18.3 mph29.5 kmh 29.19 in988.5 mb 0.04 in1.0 mm 0.00 in0.0 mm 0.04 in1.0 mm
06:00 AM 41.2°F5.1°C 36.4°F2.4°C 83% 5.4 mph W8.7 kmh W 18.3 mph29.5 kmh 29.20 in988.8 mb 0.05 in1.3 mm 0.01 in0.3 mm 0.05 in1.3 mm
06:05 AM 41.0°F5.0°C 36.2°F2.3°C 83% 9.8 mph WNW15.8 kmh WNW 17.4 mph28.0 kmh 29.20 in988.8 mb 0.05 in1.3 mm 0.00 in0.0 mm 0.05 in1.3 mm
06:10 AM 41.0°F5.0°C 36.5°F2.5°C 84% 6.0 mph WNW9.7 kmh WNW 13.0 mph20.9 kmh 29.19 in988.5 mb 0.05 in1.3 mm 0.00 in0.0 mm 0.05 in1.3 mm
06:15 AM 41.0°F5.0°C 36.5°F2.5°C 84% 2.2 mph WNW3.5 kmh WNW 13.0 mph20.9 kmh 29.19 in988.5 mb 0.05 in1.3 mm 0.00 in0.0 mm 0.05 in1.3 mm
06:20 AM 40.8°F4.9°C 36.7°F2.6°C 85% 4.5 mph W7.2 kmh W 10.7 mph17.2 kmh 29.18 in988.1 mb 0.05 in1.3 mm 0.00 in0.0 mm 0.05 in1.3 mm
06:25 AM 40.8°F4.9°C 36.7°F2.6°C 85% 6.0 mph WSW9.7 kmh WSW 10.7 mph17.2 kmh 29.18 in988.1 mb 0.05 in1.3 mm 0.00 in0.0 mm 0.05 in1.3 mm
06:30 AM 40.8°F4.9°C 36.7°F2.6°C 85% 3.1 mph WSW5.0 kmh WSW 8.3 mph13.4 kmh 29.18 in988.1 mb 0.05 in1.3 mm 0.00 in0.0 mm 0.05 in1.3 mm
06:35 AM 40.6°F4.8°C 36.5°F2.5°C 85% 4.5 mph WSW7.2 kmh WSW 9.8 mph15.8 kmh 29.18 in988.1 mb 0.04 in1.0 mm 0.00 in0.0 mm 0.05 in1.3 mm
06:40 AM 40.6°F4.8°C 36.5°F2.5°C 85% 7.6 mph WSW12.2 kmh WSW 13.0 mph20.9 kmh 29.18 in988.1 mb 0.04 in1.0 mm 0.00 in0.0 mm 0.05 in1.3 mm
06:45 AM 41.0°F5.0°C 36.2°F2.3°C 83% 6.9 mph WSW11.1 kmh WSW 13.0 mph20.9 kmh 29.18 in988.1 mb 0.02 in0.5 mm 0.00 in0.0 mm 0.05 in1.3 mm
06:50 AM 41.0°F5.0°C 36.2°F2.3°C 83% 7.6 mph SW12.2 kmh SW 15.9 mph25.6 kmh 29.18 in988.1 mb 0.01 in0.3 mm 0.00 in0.0 mm 0.05 in1.3 mm
06:55 AM 40.8°F4.9°C 36.4°F2.4°C 84% 4.5 mph SW7.2 kmh SW 15.9 mph25.6 kmh 29.18 in988.1 mb 0.01 in0.3 mm 0.00 in0.0 mm 0.05 in1.3 mm
07:00 AM 40.8°F4.9°C 36.4°F2.4°C 84% 5.4 mph SW8.7 kmh SW 12.1 mph19.5 kmh 29.18 in988.1 mb 0.00 in0.0 mm 0.00 in0.0 mm 0.05 in1.3 mm
07:05 AM 40.8°F4.9°C 36.4°F2.4°C 84% 7.6 mph SW12.2 kmh SW 13.0 mph20.9 kmh 29.17 in987.8 mb 0.00 in0.0 mm 0.00 in0.0 mm 0.05 in1.3 mm
07:10 AM 40.6°F4.8°C 36.2°F2.3°C 84% 6.0 mph SSE9.7 kmh SSE 13.0 mph20.9 kmh 29.18 in988.1 mb 0.00 in0.0 mm 0.00 in0.0 mm 0.05 in1.3 mm
07:15 AM 40.3°F4.6°C 35.8°F2.1°C 84% 3.1 mph W5.0 kmh W 13.0 mph20.9 kmh 29.17 in987.8 mb 0.00 in0.0 mm 0.00 in0.0 mm 0.05 in1.3 mm
07:20 AM 39.9°F4.4°C 35.5°F1.9°C 84% 3.8 mph SW6.1 kmh SW 11.4 mph18.3 kmh 29.17 in987.8 mb 0.00 in0.0 mm 0.00 in0.0 mm 0.05 in1.3 mm
07:25 AM 39.7°F4.3°C 35.3°F1.8°C 84% 3.8 mph SSW6.1 kmh SSW 11.4 mph18.3 kmh 29.17 in987.8 mb 0.00 in0.0 mm 0.00 in0.0 mm 0.05 in1.3 mm
07:30 AM 39.6°F4.2°C 35.1°F1.7°C 84% 2.2 mph SSW3.5 kmh SSW 9.8 mph15.8 kmh 29.16 in987.5 mb 0.00 in0.0 mm 0.00 in0.0 mm 0.05 in1.3 mm
07:35 AM 39.4°F4.1°C 35.0°F1.7°C 84% 1.6 mph SW2.6 kmh SW 7.6 mph12.2 kmh 29.16 in987.5 mb 0.00 in0.0 mm 0.00 in0.0 mm 0.05 in1.3 mm
07:40 AM 39.4°F4.1°C 35.3°F1.8°C 85% 1.6 mph S2.6 kmh S 4.5 mph7.2 kmh 29.16 in987.5 mb 0.00 in0.0 mm 0.00 in0.0 mm 0.05 in1.3 mm
07:45 AM 39.2°F4.0°C 35.1°F1.7°C 85% 3.8 mph SE6.1 kmh SE 5.4 mph8.7 kmh 29.15 in987.1 mb 0.00 in0.0 mm 0.00 in0.0 mm 0.05 in1.3 mm
07:50 AM 39.2°F4.0°C 35.1°F1.7°C 85% 3.1 mph SE5.0 kmh SE 5.4 mph8.7 kmh 29.14 in986.8 mb 0.00 in0.0 mm 0.00 in0.0 mm 0.05 in1.3 mm
07:55 AM 39.2°F4.0°C 35.1°F1.7°C 85% 0.7 mph SE1.1 kmh SE 5.4 mph8.7 kmh 29.13 in986.5 mb 0.00 in0.0 mm 0.00 in0.0 mm 0.05 in1.3 mm
08:00 AM 39.0°F3.9°C 35.5°F1.9°C 87% Calm Calm 4.5 mph7.2 kmh 29.13 in986.5 mb 0.00 in0.0 mm 0.00 in0.0 mm 0.05 in1.3 mm
08:05 AM 39.0°F3.9°C 35.5°F1.9°C 87% 0.7 mph SE1.1 kmh SE 3.1 mph5.0 kmh 29.15 in987.1 mb 0.00 in0.0 mm 0.00 in0.0 mm 0.05 in1.3 mm
08:10 AM 39.2°F4.0°C 35.4°F1.9°C 86% 1.6 mph SSW2.6 kmh SSW 5.4 mph8.7 kmh 29.14 in986.8 mb 0.01 in0.3 mm 0.12 in3.0 mm 0.06 in1.5 mm
08:15 AM 39.2°F4.0°C 35.4°F1.9°C 86% 5.4 mph S8.7 kmh S 13.6 mph21.9 kmh 29.13 in986.5 mb 0.01 in0.3 mm 0.00 in0.0 mm 0.06 in1.5 mm
08:20 AM 39.4°F4.1°C 35.5°F1.9°C 86% 4.5 mph S7.2 kmh S 13.6 mph21.9 kmh 29.13 in986.5 mb 0.01 in0.3 mm 0.00 in0.0 mm 0.06 in1.5 mm
08:25 AM 39.6°F4.2°C 35.4°F1.9°C 85% 5.4 mph SSW8.7 kmh SSW 11.4 mph18.3 kmh 29.12 in986.1 mb 0.01 in0.3 mm 0.00 in0.0 mm 0.06 in1.5 mm
08:30 AM 39.6°F4.2°C 35.4°F1.9°C 85% 5.4 mph SW8.7 kmh SW 12.1 mph19.5 kmh 29.12 in986.1 mb 0.01 in0.3 mm 0.00 in0.0 mm 0.06 in1.5 mm
08:35 AM 39.6°F4.2°C 35.4°F1.9°C 85% 5.4 mph SW8.7 kmh SW 12.1 mph19.5 kmh 29.12 in986.1 mb 0.01 in0.3 mm 0.00 in0.0 mm 0.06 in1.5 mm
08:40 AM 39.6°F4.2°C 35.4°F1.9°C 85% 5.4 mph WSW8.7 kmh WSW 10.7 mph17.2 kmh 29.12 in986.1 mb 0.02 in0.5 mm 0.12 in3.0 mm 0.07 in1.8 mm
08:45 AM 39.7°F4.3°C 35.6°F2.0°C 85% 6.0 mph WSW9.7 kmh WSW 11.4 mph18.3 kmh 29.13 in986.5 mb 0.02 in0.5 mm 0.00 in0.0 mm 0.07 in1.8 mm
08:50 AM 39.6°F4.2°C 35.4°F1.9°C 85% 9.2 mph W14.8 kmh W 12.1 mph19.5 kmh 29.14 in986.8 mb 0.02 in0.5 mm 0.00 in0.0 mm 0.07 in1.8 mm
08:55 AM 39.6°F4.2°C 35.4°F1.9°C 85% 9.8 mph WNW15.8 kmh WNW 13.6 mph21.9 kmh 29.15 in987.1 mb 0.04 in1.0 mm 0.24 in6.1 mm 0.08 in2.0 mm
09:00 AM 39.4°F4.1°C 35.5°F1.9°C 86% 9.2 mph WNW14.8 kmh WNW 16.8 mph27.0 kmh 29.16 in987.5 mb 0.04 in1.0 mm 0.00 in0.0 mm 0.08 in2.0 mm
09:05 AM 39.4°F4.1°C 35.5°F1.9°C 86% 10.7 mph NW17.2 kmh NW 16.8 mph27.0 kmh 29.16 in987.5 mb 0.05 in1.3 mm 0.12 in3.0 mm 0.09 in2.3 mm
09:10 AM 39.2°F4.0°C 35.7°F2.1°C 87% 6.9 mph NW11.1 kmh NW 17.4 mph28.0 kmh 29.16 in987.5 mb 0.06 in1.5 mm 0.12 in3.0 mm 0.12 in3.0 mm
09:15 AM 39.0°F3.9°C 35.8°F2.1°C 88% 5.4 mph NW8.7 kmh NW 17.4 mph28.0 kmh 29.16 in987.5 mb 0.07 in1.8 mm 0.12 in3.0 mm 0.13 in3.3 mm
09:20 AM 38.8°F3.8°C 35.6°F2.0°C 88% 6.0 mph WNW9.7 kmh WNW 11.4 mph18.3 kmh 29.16 in987.5 mb 0.08 in2.0 mm 0.12 in3.0 mm 0.14 in3.6 mm
09:25 AM 38.7°F3.7°C 35.4°F1.9°C 88% 3.8 mph WNW6.1 kmh WNW 9.2 mph14.8 kmh 29.16 in987.5 mb 0.09 in2.3 mm 0.12 in3.0 mm 0.15 in3.8 mm
09:30 AM 38.7°F3.7°C 35.4°F1.9°C 88% 5.4 mph W8.7 kmh W 11.4 mph18.3 kmh 29.16 in987.5 mb 0.11 in2.8 mm 0.24 in6.1 mm 0.17 in4.3 mm
09:35 AM 38.3°F3.5°C 35.1°F1.7°C 88% 9.2 mph WNW14.8 kmh WNW 14.5 mph23.3 kmh 29.15 in987.1 mb 0.11 in2.8 mm 0.00 in0.0 mm 0.18 in4.6 mm
09:40 AM 38.1°F3.4°C 34.9°F1.6°C 88% 6.0 mph NW9.7 kmh NW 15.2 mph24.5 kmh 29.15 in987.1 mb 0.12 in3.0 mm 0.12 in3.0 mm 0.19 in4.8 mm
09:45 AM 37.9°F3.3°C 34.7°F1.5°C 88% 4.5 mph NW7.2 kmh NW 15.2 mph24.5 kmh 29.16 in987.5 mb 0.12 in3.0 mm 0.00 in0.0 mm 0.19 in4.8 mm
09:50 AM 37.9°F3.3°C 34.7°F1.5°C 88% 5.4 mph NW8.7 kmh NW 9.8 mph15.8 kmh 29.15 in987.1 mb 0.13 in3.3 mm 0.12 in3.0 mm 0.20 in5.1 mm
09:55 AM 37.9°F3.3°C 34.7°F1.5°C 88% 5.4 mph WNW8.7 kmh WNW 9.2 mph14.8 kmh 29.16 in987.5 mb 0.13 in3.3 mm 0.00 in0.0 mm 0.21 in5.3 mm
10:00 AM 37.9°F3.3°C 35.0°F1.7°C 89% 3.8 mph WNW6.1 kmh WNW 9.8 mph15.8 kmh 29.15 in987.1 mb 0.13 in3.3 mm 0.00 in0.0 mm 0.21 in5.3 mm
10:05 AM 37.9°F3.3°C 35.0°F1.7°C 89% 0.7 mph WNW1.1 kmh WNW 9.8 mph15.8 kmh 29.14 in986.8 mb 0.12 in3.0 mm 0.00 in0.0 mm 0.21 in5.3 mm
10:10 AM 38.1°F3.4°C 35.2°F1.8°C 89% 0.7 mph NW1.1 kmh NW 5.4 mph8.7 kmh 29.14 in986.8 mb 0.09 in2.3 mm 0.00 in0.0 mm 0.21 in5.3 mm
10:15 AM 38.1°F3.4°C 35.2°F1.8°C 89% Calm Calm 2.2 mph3.5 kmh 29.14 in986.8 mb 0.08 in2.0 mm 0.00 in0.0 mm 0.21 in5.3 mm
10:20 AM 38.3°F3.5°C 35.6°F2.0°C 90% 2.2 mph SSE3.5 kmh SSE 3.8 mph6.1 kmh 29.13 in986.5 mb 0.07 in1.8 mm 0.00 in0.0 mm 0.21 in5.3 mm
10:25 AM 38.5°F3.6°C 35.8°F2.1°C 90% 3.8 mph SSE6.1 kmh SSE 4.5 mph7.2 kmh 29.13 in986.5 mb 0.06 in1.5 mm 0.00 in0.0 mm 0.21 in5.3 mm
10:30 AM 38.7°F3.7°C 36.0°F2.2°C 90% 3.1 mph SE5.0 kmh SE 6.0 mph9.7 kmh 29.13 in986.5 mb 0.05 in1.3 mm 0.00 in0.0 mm 0.21 in5.3 mm
10:35 AM 38.7°F3.7°C 36.0°F2.2°C 90% 0.7 mph SE1.1 kmh SE 11.4 mph18.3 kmh 29.13 in986.5 mb 0.05 in1.3 mm 0.00 in0.0 mm 0.22 in5.6 mm
10:40 AM 38.7°F3.7°C 36.3°F2.4°C 91% 2.2 mph SE3.5 kmh SE 11.4 mph18.3 kmh 29.13 in986.5 mb 0.05 in1.3 mm 0.00 in0.0 mm 0.24 in6.1 mm
10:45 AM 38.8°F3.8°C 36.4°F2.4°C 91% 0.7 mph W1.1 kmh W 6.9 mph11.1 kmh 29.14 in986.8 mb 0.05 in1.3 mm 0.00 in0.0 mm 0.24 in6.1 mm
10:50 AM 39.0°F3.9°C 36.6°F2.6°C 91% 2.2 mph W3.5 kmh W 6.9 mph11.1 kmh 29.14 in986.8 mb 0.05 in1.3 mm 0.00 in0.0 mm 0.25 in6.4 mm
10:55 AM 39.0°F3.9°C 36.6°F2.6°C 91% 6.9 mph WSW11.1 kmh WSW 13.6 mph21.9 kmh 29.14 in986.8 mb 0.04 in1.0 mm 0.00 in0.0 mm 0.25 in6.4 mm
11:00 AM 39.4°F4.1°C 36.7°F2.6°C 90% 7.6 mph WNW12.2 kmh WNW 15.9 mph25.6 kmh 29.14 in986.8 mb 0.05 in1.3 mm 0.01 in0.3 mm 0.26 in6.6 mm
11:05 AM 39.4°F4.1°C 36.4°F2.4°C 89% 3.8 mph NW6.1 kmh NW 15.9 mph25.6 kmh 29.13 in986.5 mb 0.06 in1.5 mm 0.12 in3.0 mm 0.27 in6.9 mm
11:10 AM 39.4°F4.1°C 36.4°F2.4°C 89% 6.0 mph NW9.7 kmh NW 11.4 mph18.3 kmh 29.14 in986.8 mb 0.07 in1.8 mm 0.12 in3.0 mm 0.28 in7.1 mm
11:15 AM 39.4°F4.1°C 36.4°F2.4°C 89% 12.1 mph NW19.5 kmh NW 14.5 mph23.3 kmh 29.13 in986.5 mb 0.07 in1.8 mm 0.00 in0.0 mm 0.28 in7.1 mm
11:20 AM 38.5°F3.6°C 35.5°F1.9°C 89% 2.2 mph NNW3.5 kmh NNW 14.5 mph23.3 kmh 29.14 in986.8 mb 0.07 in1.8 mm 0.00 in0.0 mm 0.28 in7.1 mm
11:25 AM 37.6°F3.1°C 34.4°F1.3°C 88% 3.8 mph NNE6.1 kmh NNE 14.5 mph23.3 kmh 29.14 in986.8 mb 0.07 in1.8 mm 0.00 in0.0 mm 0.28 in7.1 mm
11:30 AM 36.9°F2.7°C 32.5°F0.3°C 84% 2.2 mph NE3.5 kmh NE 6.9 mph11.1 kmh 29.15 in987.1 mb 0.08 in2.0 mm 0.12 in3.0 mm 0.30 in7.6 mm
11:35 AM 36.3°F2.4°C 32.0°F0.0°C 84% 1.6 mph NNE2.6 kmh NNE 6.0 mph9.7 kmh 29.14 in986.8 mb 0.08 in2.0 mm 0.00 in0.0 mm 0.31 in7.9 mm
11:40 AM 35.6°F2.0°C 31.3°F-0.4°C 84% Calm Calm 4.5 mph7.2 kmh 29.14 in986.8 mb 0.07 in1.8 mm 0.00 in0.0 mm 0.31 in7.9 mm
11:45 AM 35.4°F1.9°C 31.4°F-0.3°C 85% 0.7 mph NE1.1 kmh NE 3.8 mph6.1 kmh 29.15 in987.1 mb 0.08 in2.0 mm 0.12 in3.0 mm 0.32 in8.1 mm
11:50 AM 35.2°F1.8°C 31.2°F-0.4°C 85% 2.2 mph N3.5 kmh N 3.8 mph6.1 kmh 29.15 in987.1 mb 0.08 in2.0 mm 0.00 in0.0 mm 0.33 in8.4 mm
11:55 AM 35.1°F1.7°C 31.0°F-0.6°C 85% 2.2 mph N3.5 kmh N 3.8 mph6.1 kmh 29.15 in987.1 mb 0.08 in2.0 mm 0.00 in0.0 mm 0.33 in8.4 mm
12:00 PM 35.1°F1.7°C 31.3°F-0.4°C 86% 1.6 mph NE2.6 kmh NE 3.8 mph6.1 kmh 29.15 in987.1 mb 0.08 in2.0 mm 0.00 in0.0 mm 0.34 in8.6 mm
12:05 PM 35.1°F1.7°C 31.3°F-0.4°C 86% 1.6 mph ENE2.6 kmh ENE 3.1 mph5.0 kmh 29.16 in987.5 mb 0.07 in1.8 mm 0.00 in0.0 mm 0.34 in8.6 mm
12:10 PM 34.9°F1.6°C 31.1°F-0.5°C 86% 0.7 mph NNE1.1 kmh NNE 3.1 mph5.0 kmh 29.17 in987.8 mb 0.07 in1.8 mm 0.00 in0.0 mm 0.35 in8.9 mm
12:15 PM 34.9°F1.6°C 31.1°F-0.5°C 86% 0.7 mph NW1.1 kmh NW 6.0 mph9.7 kmh 29.17 in987.8 mb 0.08 in2.0 mm 0.12 in3.0 mm 0.37 in9.4 mm
12:20 PM 34.7°F1.5°C 31.2°F-0.4°C 87% 0.7 mph NW1.1 kmh NW 7.6 mph12.2 kmh 29.16 in987.5 mb 0.11 in2.8 mm 0.36 in9.1 mm 0.39 in9.9 mm
12:25 PM 34.7°F1.5°C 31.2°F-0.4°C 87% 1.6 mph NW2.6 kmh NW 7.6 mph12.2 kmh 29.17 in987.8 mb 0.12 in3.0 mm 0.12 in3.0 mm 0.40 in10.2 mm
12:30 PM 34.7°F1.5°C 31.2°F-0.4°C 87% 0.7 mph NW1.1 kmh NW 4.5 mph7.2 kmh 29.16 in987.5 mb 0.11 in2.8 mm 0.00 in0.0 mm 0.40 in10.2 mm
12:35 PM 35.1°F1.7°C 31.9°F-0.1°C 88% Calm Calm 3.8 mph6.1 kmh 29.16 in987.5 mb 0.11 in2.8 mm 0.00 in0.0 mm 0.41 in10.4 mm
12:40 PM 35.4°F1.9°C 32.2°F0.1°C 88% Calm Calm 1.6 mph2.6 kmh 29.16 in987.5 mb 0.11 in2.8 mm 0.00 in0.0 mm 0.43 in10.9 mm
12:45 PM 36.1°F2.3°C 32.9°F0.5°C 88% 1.6 mph WNW2.6 kmh WNW 3.1 mph5.0 kmh 29.16 in987.5 mb 0.11 in2.8 mm 0.00 in0.0 mm 0.43 in10.9 mm
12:50 PM 36.5°F2.5°C 33.3°F0.7°C 88% 1.6 mph NW2.6 kmh NW 3.1 mph5.0 kmh 29.17 in987.8 mb 0.09 in2.3 mm 0.00 in0.0 mm 0.43 in10.9 mm
12:55 PM 37.2°F2.9°C 34.3°F1.3°C 89% 1.6 mph NW2.6 kmh NW 3.1 mph5.0 kmh 29.17 in987.8 mb 0.09 in2.3 mm 0.00 in0.0 mm 0.43 in10.9 mm
01:00 PM 37.8°F3.2°C 35.9°F2.2°C 93% 3.8 mph W6.1 kmh W 7.6 mph12.2 kmh 29.17 in987.8 mb 0.08 in2.0 mm 0.00 in0.0 mm 0.43 in10.9 mm
01:05 PM 38.3°F3.5°C 36.7°F2.6°C 94% 5.4 mph NW8.7 kmh NW 9.2 mph14.8 kmh 29.17 in987.8 mb 0.08 in2.0 mm 0.00 in0.0 mm 0.44 in11.2 mm
01:10 PM 38.8°F3.8°C 37.3°F2.9°C 94% 3.8 mph NW6.1 kmh NW 9.2 mph14.8 kmh 29.17 in987.8 mb 0.08 in2.0 mm 0.00 in0.0 mm 0.44 in11.2 mm
01:15 PM 39.0°F3.9°C 37.7°F3.2°C 95% 10.7 mph W17.2 kmh W 13.0 mph20.9 kmh 29.17 in987.8 mb 0.07 in1.8 mm 0.00 in0.0 mm 0.44 in11.2 mm
01:20 PM 39.2°F4.0°C 37.4°F3.0°C 93% 7.6 mph WNW12.2 kmh WNW 13.0 mph20.9 kmh 29.17 in987.8 mb 0.06 in1.5 mm 0.00 in0.0 mm 0.45 in11.4 mm
01:25 PM 39.0°F3.9°C 37.2°F2.9°C 93% 7.6 mph W12.2 kmh W 15.2 mph24.5 kmh 29.18 in988.1 mb 0.05 in1.3 mm 0.00 in0.0 mm 0.45 in11.4 mm
01:30 PM 39.2°F4.0°C 37.1°F2.8°C 92% 6.9 mph W11.1 kmh W 15.2 mph24.5 kmh 29.18 in988.1 mb 0.05 in1.3 mm 0.00 in0.0 mm 0.45 in11.4 mm
01:35 PM 39.4°F4.1°C 37.0°F2.8°C 91% 5.4 mph W8.7 kmh W 12.1 mph19.5 kmh 29.18 in988.1 mb 0.04 in1.0 mm 0.00 in0.0 mm 0.45 in11.4 mm
01:40 PM 39.9°F4.4°C 37.5°F3.1°C 91% 8.3 mph WSW13.4 kmh WSW 10.7 mph17.2 kmh 29.18 in988.1 mb 0.02 in0.5 mm 0.00 in0.0 mm 0.45 in11.4 mm
01:45 PM 40.5°F4.7°C 37.8°F3.2°C 90% 3.1 mph W5.0 kmh W 10.7 mph17.2 kmh 29.18 in988.1 mb 0.02 in0.5 mm 0.00 in0.0 mm 0.45 in11.4 mm
01:50 PM 41.0°F5.0°C 38.0°F3.3°C 89% 3.8 mph WNW6.1 kmh WNW 9.8 mph15.8 kmh 29.18 in988.1 mb 0.02 in0.5 mm 0.00 in0.0 mm 0.45 in11.4 mm
01:55 PM 41.4°F5.2°C 38.4°F3.6°C 89% 3.8 mph WNW6.1 kmh WNW 6.9 mph11.1 kmh 29.18 in988.1 mb 0.02 in0.5 mm 0.00 in0.0 mm 0.45 in11.4 mm
02:00 PM 41.5°F5.3°C 38.5°F3.6°C 89% 3.8 mph W6.1 kmh W 9.2 mph14.8 kmh 29.18 in988.1 mb 0.02 in0.5 mm 0.00 in0.0 mm 0.45 in11.4 mm
02:05 PM 41.7°F5.4°C 38.1°F3.4°C 87% 6.9 mph W11.1 kmh W 11.4 mph18.3 kmh 29.18 in988.1 mb 0.01 in0.3 mm 0.00 in0.0 mm 0.45 in11.4 mm
02:10 PM 41.9°F5.5°C 38.0°F3.3°C 86% 3.8 mph WSW6.1 kmh WSW 13.6 mph21.9 kmh 29.18 in988.1 mb 0.01 in0.3 mm 0.00 in0.0 mm 0.45 in11.4 mm
02:15 PM 42.3°F5.7°C 38.4°F3.6°C 86% 4.5 mph SW7.2 kmh SW 13.6 mph21.9 kmh 29.18 in988.1 mb 0.01 in0.3 mm 0.00 in0.0 mm 0.45 in11.4 mm
02:20 PM 43.0°F6.1°C 38.5°F3.6°C 84% 4.5 mph WSW7.2 kmh WSW 8.3 mph13.4 kmh 29.18 in988.1 mb 0.00 in0.0 mm 0.00 in0.0 mm 0.45 in11.4 mm
02:25 PM 43.2°F6.2°C 38.4°F3.6°C 83% 5.4 mph WSW8.7 kmh WSW 9.2 mph14.8 kmh 29.17 in987.8 mb 0.00 in0.0 mm 0.00 in0.0 mm 0.45 in11.4 mm
02:30 PM 43.2°F6.2°C 37.7°F3.2°C 81% 6.0 mph W9.7 kmh W 12.1 mph19.5 kmh 29.18 in988.1 mb 0.00 in0.0 mm 0.00 in0.0 mm 0.45 in11.4 mm
02:35 PM 43.0°F6.1°C 37.2°F2.9°C 80% 6.9 mph WSW11.1 kmh WSW 14.5 mph23.3 kmh 29.18 in988.1 mb 0.00 in0.0 mm 0.00 in0.0 mm 0.45 in11.4 mm
02:40 PM 42.3°F5.7°C 36.2°F2.3°C 79% 6.0 mph SW9.7 kmh SW 14.5 mph23.3 kmh 29.18 in988.1 mb 0.00 in0.0 mm 0.00 in0.0 mm 0.45 in11.4 mm
02:45 PM 41.9°F5.5°C 35.9°F2.2°C 79% 6.9 mph SW11.1 kmh SW 17.4 mph28.0 kmh 29.18 in988.1 mb 0.00 in0.0 mm 0.00 in0.0 mm 0.45 in11.4 mm
02:50 PM 41.5°F5.3°C 35.5°F1.9°C 79% 6.9 mph SW11.1 kmh SW 17.4 mph28.0 kmh 29.18 in988.1 mb 0.00 in0.0 mm 0.00 in0.0 mm 0.45 in11.4 mm
02:55 PM 41.4°F5.2°C 35.7°F2.1°C 80% 6.9 mph SW11.1 kmh SW 17.4 mph28.0 kmh 29.18 in988.1 mb 0.00 in0.0 mm 0.00 in0.0 mm 0.45 in11.4 mm
03:00 PM 41.4°F5.2°C 36.0°F2.2°C 81% 5.4 mph WSW8.7 kmh WSW 17.4 mph28.0 kmh 29.18 in988.1 mb 0.00 in0.0 mm 0.00 in0.0 mm 0.45 in11.4 mm
03:05 PM 41.5°F5.3°C 36.5°F2.5°C 82% 7.6 mph SW12.2 kmh SW 13.6 mph21.9 kmh 29.17 in987.8 mb 0.00 in0.0 mm 0.00 in0.0 mm 0.45 in11.4 mm
03:10 PM 41.7°F5.4°C 36.3°F2.4°C 81% 5.4 mph SW8.7 kmh SW 13.6 mph21.9 kmh 29.17 in987.8 mb 0.00 in0.0 mm 0.00 in0.0 mm 0.45 in11.4 mm
03:15 PM 41.7°F5.4°C 36.3°F2.4°C 81% 9.8 mph SSW15.8 kmh SSW 15.2 mph24.5 kmh 29.18 in988.1 mb 0.00 in0.0 mm 0.00 in0.0 mm 0.45 in11.4 mm
03:20 PM 41.5°F5.3°C 36.2°F2.3°C 81% 9.2 mph S14.8 kmh S 15.2 mph24.5 kmh 29.18 in988.1 mb 0.00 in0.0 mm 0.00 in0.0 mm 0.45 in11.4 mm
03:25 PM 41.4°F5.2°C 36.0°F2.2°C 81% 7.6 mph W12.2 kmh W 13.0 mph20.9 kmh 29.18 in988.1 mb 0.00 in0.0 mm 0.00 in0.0 mm 0.45 in11.4 mm
03:30 PM 40.8°F4.9°C 35.8°F2.1°C 82% 9.2 mph WNW14.8 kmh WNW 19.7 mph31.7 kmh 29.18 in988.1 mb 0.00 in0.0 mm 0.00 in0.0 mm 0.45 in11.4 mm
03:35 PM 39.9°F4.4°C 34.9°F1.6°C 82% 6.0 mph WSW9.7 kmh WSW 19.7 mph31.7 kmh 29.18 in988.1 mb 0.01 in0.3 mm 0.12 in3.0 mm 0.46 in11.7 mm
03:40 PM 39.6°F4.2°C 35.1°F1.7°C 84% 8.3 mph WSW13.4 kmh WSW 13.0 mph20.9 kmh 29.19 in988.5 mb 0.02 in0.5 mm 0.12 in3.0 mm 0.47 in11.9 mm
03:45 PM 39.2°F4.0°C 34.8°F1.6°C 84% 6.9 mph W11.1 kmh W 13.0 mph20.9 kmh 29.20 in988.8 mb 0.04 in1.0 mm 0.24 in6.1 mm 0.48 in12.2 mm
03:50 PM 39.0°F3.9°C 35.2°F1.8°C 86% 5.4 mph W8.7 kmh W 13.0 mph20.9 kmh 29.20 in988.8 mb 0.05 in1.3 mm 0.12 in3.0 mm 0.50 in12.7 mm
03:55 PM 38.7°F3.7°C 34.8°F1.6°C 86% 7.6 mph WNW12.2 kmh WNW 13.0 mph20.9 kmh 29.20 in988.8 mb 0.07 in1.8 mm 0.24 in6.1 mm 0.52 in13.2 mm
04:00 PM 38.3°F3.5°C 34.5°F1.4°C 86% 9.2 mph W14.8 kmh W 14.5 mph23.3 kmh 29.21 in989.2 mb 0.07 in1.8 mm 0.00 in0.0 mm 0.52 in13.2 mm
04:05 PM 38.1°F3.4°C 34.3°F1.3°C 86% 6.9 mph WNW11.1 kmh WNW 14.5 mph23.3 kmh 29.22 in989.5 mb 0.08 in2.0 mm 0.12 in3.0 mm 0.53 in13.5 mm
04:10 PM 37.9°F3.3°C 34.4°F1.3°C 87% 6.9 mph W11.1 kmh W 14.5 mph23.3 kmh 29.22 in989.5 mb 0.08 in2.0 mm 0.00 in0.0 mm 0.53 in13.5 mm
04:15 PM 37.9°F3.3°C 34.4°F1.3°C 87% 5.4 mph WSW8.7 kmh WSW 14.5 mph23.3 kmh 29.22 in989.5 mb 0.08 in2.0 mm 0.00 in0.0 mm 0.53 in13.5 mm
04:20 PM 38.1°F3.4°C 34.9°F1.6°C 88% 8.3 mph WNW13.4 kmh WNW 13.0 mph20.9 kmh 29.22 in989.5 mb 0.08 in2.0 mm 0.00 in0.0 mm 0.53 in13.5 mm
04:25 PM 38.1°F3.4°C 34.9°F1.6°C 88% 6.9 mph WNW11.1 kmh WNW 13.0 mph20.9 kmh 29.22 in989.5 mb 0.08 in2.0 mm 0.00 in0.0 mm 0.53 in13.5 mm
04:30 PM 38.5°F3.6°C 35.5°F1.9°C 89% 8.3 mph W13.4 kmh W 13.0 mph20.9 kmh 29.23 in989.8 mb 0.09 in2.3 mm 0.12 in3.0 mm 0.54 in13.7 mm
04:35 PM 38.5°F3.6°C 35.5°F1.9°C 89% 8.3 mph W13.4 kmh W 13.0 mph20.9 kmh 29.23 in989.8 mb 0.08 in2.0 mm 0.00 in0.0 mm 0.54 in13.7 mm
04:40 PM 38.7°F3.7°C 36.0°F2.2°C 90% 7.6 mph W12.2 kmh W 12.1 mph19.5 kmh 29.23 in989.8 mb 0.07 in1.8 mm 0.00 in0.0 mm 0.54 in13.7 mm
04:45 PM 38.8°F3.8°C 36.2°F2.3°C 90% 5.4 mph WSW8.7 kmh WSW 12.1 mph19.5 kmh 29.24 in990.2 mb 0.06 in1.5 mm 0.00 in0.0 mm 0.54 in13.7 mm
04:50 PM 39.0°F3.9°C 36.3°F2.4°C 90% 6.0 mph W9.7 kmh W 12.1 mph19.5 kmh 29.24 in990.2 mb 0.05 in1.3 mm 0.00 in0.0 mm 0.54 in13.7 mm
04:55 PM 39.0°F3.9°C 36.3°F2.4°C 90% 9.2 mph WSW14.8 kmh WSW 12.1 mph19.5 kmh 29.24 in990.2 mb 0.04 in1.0 mm 0.00 in0.0 mm 0.56 in14.2 mm
05:00 PM 39.2°F4.0°C 36.0°F2.2°C 88% 10.7 mph WSW17.2 kmh WSW 15.9 mph25.6 kmh 29.24 in990.2 mb 0.05 in1.3 mm 0.01 in0.3 mm 0.57 in14.5 mm
05:05 PM 39.2°F4.0°C 36.0°F2.2°C 88% 6.0 mph WSW9.7 kmh WSW 15.9 mph25.6 kmh 29.24 in990.2 mb 0.04 in1.0 mm 0.00 in0.0 mm 0.57 in14.5 mm
05:10 PM 39.2°F4.0°C 35.7°F2.1°C 87% 7.6 mph W12.2 kmh W 19.0 mph30.6 kmh 29.24 in990.2 mb 0.04 in1.0 mm 0.00 in0.0 mm 0.57 in14.5 mm
05:15 PM 39.2°F4.0°C 35.7°F2.1°C 87% 6.0 mph W9.7 kmh W 19.0 mph30.6 kmh 29.24 in990.2 mb 0.05 in1.3 mm 0.12 in3.0 mm 0.58 in14.7 mm
05:20 PM 39.4°F4.1°C 35.8°F2.1°C 87% 6.9 mph W11.1 kmh W 14.5 mph23.3 kmh 29.24 in990.2 mb 0.05 in1.3 mm 0.00 in0.0 mm 0.58 in14.7 mm
05:25 PM 39.4°F4.1°C 35.8°F2.1°C 87% 6.9 mph W11.1 kmh W 14.5 mph23.3 kmh 29.25 in990.5 mb 0.05 in1.3 mm 0.00 in0.0 mm 0.58 in14.7 mm
05:30 PM 39.4°F4.1°C 35.8°F2.1°C 87% 9.2 mph WSW14.8 kmh WSW 14.5 mph23.3 kmh 29.26 in990.9 mb 0.04 in1.0 mm 0.00 in0.0 mm 0.58 in14.7 mm
05:35 PM 39.6°F4.2°C 36.3°F2.4°C 88% 6.9 mph W11.1 kmh W 14.5 mph23.3 kmh 29.25 in990.5 mb 0.04 in1.0 mm 0.00 in0.0 mm 0.58 in14.7 mm
05:40 PM 39.6°F4.2°C 36.3°F2.4°C 88% 3.8 mph NW6.1 kmh NW 14.5 mph23.3 kmh 29.25 in990.5 mb 0.04 in1.0 mm 0.00 in0.0 mm 0.58 in14.7 mm
05:45 PM 39.4°F4.1°C 36.1°F2.3°C 88% 5.4 mph WSW8.7 kmh WSW 14.5 mph23.3 kmh 29.24 in990.2 mb 0.05 in1.3 mm 0.12 in3.0 mm 0.59 in15.0 mm
05:50 PM 39.4°F4.1°C 36.1°F2.3°C 88% 9.2 mph SSW14.8 kmh SSW 13.6 mph21.9 kmh 29.25 in990.5 mb 0.05 in1.3 mm 0.00 in0.0 mm 0.59 in15.0 mm
05:55 PM 39.4°F4.1°C 36.1°F2.3°C 88% 6.9 mph W11.1 kmh W 13.6 mph21.9 kmh 29.26 in990.9 mb 0.04 in1.0 mm 0.00 in0.0 mm 0.59 in15.0 mm
06:00 PM 39.4°F4.1°C 36.1°F2.3°C 88% 6.9 mph W11.1 kmh W 13.6 mph21.9 kmh 29.26 in990.9 mb 0.02 in0.5 mm 0.00 in0.0 mm 0.59 in15.0 mm
06:05 PM 39.6°F4.2°C 36.3°F2.4°C 88% 8.3 mph W13.4 kmh W 13.0 mph20.9 kmh 29.27 in991.2 mb 0.02 in0.5 mm 0.00 in0.0 mm 0.59 in15.0 mm
06:10 PM 39.6°F4.2°C 36.3°F2.4°C 88% 6.9 mph W11.1 kmh W 13.0 mph20.9 kmh 29.27 in991.2 mb 0.02 in0.5 mm 0.00 in0.0 mm 0.59 in15.0 mm
06:15 PM 39.6°F4.2°C 36.3°F2.4°C 88% 7.6 mph W12.2 kmh W 12.1 mph19.5 kmh 29.27 in991.2 mb 0.01 in0.3 mm 0.00 in0.0 mm 0.59 in15.0 mm
06:20 PM 39.6°F4.2°C 36.3°F2.4°C 88% 7.6 mph W12.2 kmh W 13.0 mph20.9 kmh 29.28 in991.5 mb 0.01 in0.3 mm 0.00 in0.0 mm 0.59 in15.0 mm
06:25 PM 39.6°F4.2°C 36.3°F2.4°C 88% 8.3 mph W13.4 kmh W 15.9 mph25.6 kmh 29.29 in991.9 mb 0.01 in0.3 mm 0.00 in0.0 mm 0.59 in15.0 mm
06:30 PM 39.7°F4.3°C 36.5°F2.5°C 88% 8.3 mph W13.4 kmh W 15.9 mph25.6 kmh 29.30 in992.2 mb 0.01 in0.3 mm 0.00 in0.0 mm 0.59 in15.0 mm
06:35 PM 39.7°F4.3°C 36.5°F2.5°C 88% 6.9 mph W11.1 kmh W 15.2 mph24.5 kmh 29.31 in992.6 mb 0.01 in0.3 mm 0.00 in0.0 mm 0.59 in15.0 mm
06:40 PM 39.7°F4.3°C 36.8°F2.7°C 89% 9.2 mph W14.8 kmh W 15.2 mph24.5 kmh 29.31 in992.6 mb 0.01 in0.3 mm 0.00 in0.0 mm 0.59 in15.0 mm
06:45 PM 39.9°F4.4°C 36.9°F2.7°C 89% 8.3 mph W13.4 kmh W 18.3 mph29.5 kmh 29.31 in992.6 mb 0.01 in0.3 mm 0.00 in0.0 mm 0.60 in15.2 mm
06:50 PM 39.9°F4.4°C 36.7°F2.6°C 88% 15.9 mph WSW25.6 kmh WSW 20.6 mph33.2 kmh 29.30 in992.2 mb 0.01 in0.3 mm 0.00 in0.0 mm 0.60 in15.2 mm
06:55 PM 40.3°F4.6°C 36.7°F2.6°C 87% 9.2 mph WSW14.8 kmh WSW 20.6 mph33.2 kmh 29.31 in992.6 mb 0.01 in0.3 mm 0.00 in0.0 mm 0.60 in15.2 mm
07:00 PM 40.3°F4.6°C 36.7°F2.6°C 87% 9.2 mph W14.8 kmh W 19.7 mph31.7 kmh 29.32 in992.9 mb 0.01 in0.3 mm 0.00 in0.0 mm 0.60 in15.2 mm
07:05 PM 40.3°F4.6°C 36.4°F2.4°C 86% 9.8 mph W15.8 kmh W 17.4 mph28.0 kmh 29.32 in992.9 mb 0.01 in0.3 mm 0.00 in0.0 mm 0.60 in15.2 mm
07:10 PM 40.5°F4.7°C 36.3°F2.4°C 85% 9.2 mph WNW14.8 kmh WNW 20.6 mph33.2 kmh 29.32 in992.9 mb 0.01 in0.3 mm 0.00 in0.0 mm 0.60 in15.2 mm
07:15 PM 40.8°F4.9°C 36.7°F2.6°C 85% 6.0 mph NW9.7 kmh NW 20.6 mph33.2 kmh 29.33 in993.2 mb 0.01 in0.3 mm 0.00 in0.0 mm 0.60 in15.2 mm
07:20 PM 40.8°F4.9°C 36.4°F2.4°C 84% 3.8 mph W6.1 kmh W 14.5 mph23.3 kmh 29.34 in993.6 mb 0.01 in0.3 mm 0.00 in0.0 mm 0.60 in15.2 mm
07:25 PM 41.0°F5.0°C 36.2°F2.3°C 83% 3.1 mph W5.0 kmh W 12.1 mph19.5 kmh 29.35 in993.9 mb 0.01 in0.3 mm 0.00 in0.0 mm 0.60 in15.2 mm
07:30 PM 41.0°F5.0°C 36.2°F2.3°C 83% 4.5 mph WSW7.2 kmh WSW 12.1 mph19.5 kmh 29.35 in993.9 mb 0.01 in0.3 mm 0.00 in0.0 mm 0.60 in15.2 mm
07:35 PM 41.2°F5.1°C 36.1°F2.3°C 82% 7.6 mph WNW12.2 kmh WNW 12.1 mph19.5 kmh 29.35 in993.9 mb 0.01 in0.3 mm 0.00 in0.0 mm 0.60 in15.2 mm
07:40 PM 41.9°F5.5°C 35.6°F2.0°C 78% 9.8 mph WNW15.8 kmh WNW 16.8 mph27.0 kmh 29.35 in993.9 mb 0.01 in0.3 mm 0.00 in0.0 mm 0.60 in15.2 mm
07:45 PM 42.1°F5.6°C 34.7°F1.5°C 75% 13.0 mph NW20.9 kmh NW 19.7 mph31.7 kmh 29.35 in993.9 mb 0.00 in0.0 mm 0.00 in0.0 mm 0.60 in15.2 mm
07:50 PM 42.3°F5.7°C 34.2°F1.2°C 73% 7.6 mph NW12.2 kmh NW 21.3 mph34.3 kmh 29.35 in993.9 mb 0.00 in0.0 mm 0.00 in0.0 mm 0.60 in15.2 mm
07:55 PM 42.3°F5.7°C 33.9°F1.1°C 72% 9.2 mph NW14.8 kmh NW 21.3 mph34.3 kmh 29.36 in994.2 mb 0.00 in0.0 mm 0.00 in0.0 mm 0.60 in15.2 mm
08:00 PM 42.4°F5.8°C 33.7°F0.9°C 71% 3.8 mph WNW6.1 kmh WNW 20.6 mph33.2 kmh 29.36 in994.2 mb 0.00 in0.0 mm 0.00 in0.0 mm 0.60 in15.2 mm
08:05 PM 42.4°F5.8°C 33.7°F0.9°C 71% 4.5 mph WNW7.2 kmh WNW 17.4 mph28.0 kmh 29.37 in994.6 mb 0.00 in0.0 mm 0.00 in0.0 mm 0.60 in15.2 mm
08:10 PM 42.3°F5.7°C 34.2°F1.2°C 73% 4.5 mph WNW7.2 kmh WNW 10.7 mph17.2 kmh 29.38 in994.9 mb 0.00 in0.0 mm 0.00 in0.0 mm 0.60 in15.2 mm
08:15 PM 42.3°F5.7°C 34.2°F1.2°C 73% 9.2 mph WSW14.8 kmh WSW 15.9 mph25.6 kmh 29.38 in994.9 mb 0.00 in0.0 mm 0.00 in0.0 mm 0.60 in15.2 mm
08:20 PM 42.3°F5.7°C 34.2°F1.2°C 73% 5.4 mph W8.7 kmh W 15.9 mph25.6 kmh 29.39 in995.3 mb 0.00 in0.0 mm 0.00 in0.0 mm 0.60 in15.2 mm
08:25 PM 42.1°F5.6°C 34.1°F1.2°C 73% 5.4 mph W8.7 kmh W 13.0 mph20.9 kmh 29.39 in995.3 mb 0.00 in0.0 mm 0.00 in0.0 mm 0.60 in15.2 mm
08:30 PM 42.3°F5.7°C 34.2°F1.2°C 73% 5.4 mph WSW8.7 kmh WSW 9.2 mph14.8 kmh 29.39 in995.3 mb 0.00 in0.0 mm 0.00 in0.0 mm 0.60 in15.2 mm
08:35 PM 42.3°F5.7°C 34.2°F1.2°C 73% 5.4 mph WSW8.7 kmh WSW 10.7 mph17.2 kmh 29.39 in995.3 mb 0.00 in0.0 mm 0.00 in0.0 mm 0.60 in15.2 mm
08:40 PM 42.3°F5.7°C 34.2°F1.2°C 73% 5.4 mph WSW8.7 kmh WSW 11.4 mph18.3 kmh 29.40 in995.6 mb 0.00 in0.0 mm 0.00 in0.0 mm 0.60 in15.2 mm
08:45 PM 42.1°F5.6°C 33.7°F0.9°C 72% 9.2 mph WSW14.8 kmh WSW 15.9 mph25.6 kmh 29.41 in995.9 mb 0.00 in0.0 mm 0.00 in0.0 mm 0.60 in15.2 mm
08:50 PM 42.1°F5.6°C 33.4°F0.8°C 71% 4.5 mph WSW7.2 kmh WSW 15.9 mph25.6 kmh 29.40 in995.6 mb 0.00 in0.0 mm 0.00 in0.0 mm 0.60 in15.2 mm
08:55 PM 42.1°F5.6°C 33.0°F0.6°C 70% 4.5 mph W7.2 kmh W 13.0 mph20.9 kmh 29.41 in995.9 mb 0.00 in0.0 mm 0.00 in0.0 mm 0.60 in15.2 mm
09:00 PM 42.1°F5.6°C 33.0°F0.6°C 70% 8.3 mph W13.4 kmh W 13.0 mph20.9 kmh 29.41 in995.9 mb 0.00 in0.0 mm 0.00 in0.0 mm 0.60 in15.2 mm
09:05 PM 42.1°F5.6°C 33.4°F0.8°C 71% 6.9 mph WNW11.1 kmh WNW 15.2 mph24.5 kmh 29.42 in996.3 mb 0.00 in0.0 mm 0.00 in0.0 mm 0.60 in15.2 mm
09:10 PM 41.9°F5.5°C 33.9°F1.1°C 73% 8.3 mph W13.4 kmh W 15.2 mph24.5 kmh 29.42 in996.3 mb 0.00 in0.0 mm 0.00 in0.0 mm 0.60 in15.2 mm
09:15 PM 41.7°F5.4°C 33.7°F0.9°C 73% 9.2 mph W14.8 kmh W 13.6 mph21.9 kmh 29.43 in996.6 mb 0.00 in0.0 mm 0.00 in0.0 mm 0.60 in15.2 mm
09:20 PM 41.5°F5.3°C 33.9°F1.1°C 74% 11.4 mph WNW18.3 kmh WNW 15.2 mph24.5 kmh 29.44 in997.0 mb 0.00 in0.0 mm 0.00 in0.0 mm 0.60 in15.2 mm
09:25 PM 41.4°F5.2°C 34.0°F1.1°C 75% 6.9 mph W11.1 kmh W 15.2 mph24.5 kmh 29.44 in997.0 mb 0.00 in0.0 mm 0.00 in0.0 mm 0.60 in15.2 mm
09:30 PM 41.0°F5.0°C 34.0°F1.1°C 76% 4.5 mph W7.2 kmh W 14.5 mph23.3 kmh 29.44 in997.0 mb 0.00 in0.0 mm 0.00 in0.0 mm 0.60 in15.2 mm
09:35 PM 40.6°F4.8°C 34.0°F1.1°C 77% 6.9 mph W11.1 kmh W 13.0 mph20.9 kmh 29.44 in997.0 mb 0.00 in0.0 mm 0.00 in0.0 mm 0.60 in15.2 mm
09:40 PM 40.6°F4.8°C 34.3°F1.3°C 78% 3.8 mph W6.1 kmh W 13.0 mph20.9 kmh 29.45 in997.3 mb 0.00 in0.0 mm 0.00 in0.0 mm 0.60 in15.2 mm
09:45 PM 40.5°F4.7°C 34.2°F1.2°C 78% 1.6 mph WSW2.6 kmh WSW 11.4 mph18.3 kmh 29.45 in997.3 mb 0.00 in0.0 mm 0.00 in0.0 mm 0.60 in15.2 mm
09:50 PM 40.3°F4.6°C 34.3°F1.3°C 79% 5.4 mph W8.7 kmh W 9.2 mph14.8 kmh 29.46 in997.6 mb 0.00 in0.0 mm 0.00 in0.0 mm 0.60 in15.2 mm
09:55 PM 40.1°F4.5°C 34.1°F1.2°C 79% 8.3 mph WSW13.4 kmh WSW 14.5 mph23.3 kmh 29.46 in997.6 mb 0.00 in0.0 mm 0.00 in0.0 mm 0.60 in15.2 mm
10:00 PM 40.1°F4.5°C 34.4°F1.3°C 80% 12.1 mph WSW19.5 kmh WSW 17.4 mph28.0 kmh 29.46 in997.6 mb 0.00 in0.0 mm 0.00 in0.0 mm 0.60 in15.2 mm
10:05 PM 40.1°F4.5°C 34.4°F1.3°C 80% 6.0 mph WSW9.7 kmh WSW 17.4 mph28.0 kmh 29.46 in997.6 mb 0.00 in0.0 mm 0.00 in0.0 mm 0.60 in15.2 mm
10:10 PM 40.1°F4.5°C 34.4°F1.3°C 80% 5.4 mph SW8.7 kmh SW 17.4 mph28.0 kmh 29.47 in998.0 mb 0.00 in0.0 mm 0.00 in0.0 mm 0.60 in15.2 mm
10:15 PM 40.1°F4.5°C 34.1°F1.2°C 79% 6.0 mph SSW9.7 kmh SSW 13.6 mph21.9 kmh 29.47 in998.0 mb 0.00 in0.0 mm 0.00 in0.0 mm 0.60 in15.2 mm
10:20 PM 39.9°F4.4°C 34.3°F1.3°C 80% 6.9 mph SW11.1 kmh SW 13.0 mph20.9 kmh 29.47 in998.0 mb 0.00 in0.0 mm 0.00 in0.0 mm 0.60 in15.2 mm
10:25 PM 39.7°F4.3°C 34.1°F1.2°C 80% 8.3 mph W13.4 kmh W 13.0 mph20.9 kmh 29.48 in998.3 mb 0.00 in0.0 mm 0.00 in0.0 mm 0.60 in15.2 mm
10:30 PM 39.7°F4.3°C 34.1°F1.2°C 80% 6.0 mph W9.7 kmh W 13.0 mph20.9 kmh 29.48 in998.3 mb 0.00 in0.0 mm 0.00 in0.0 mm 0.60 in15.2 mm
10:35 PM 39.6°F4.2°C 34.2°F1.2°C 81% 3.1 mph W5.0 kmh W 13.0 mph20.9 kmh 29.48 in998.3 mb 0.00 in0.0 mm 0.00 in0.0 mm 0.60 in15.2 mm
10:40 PM 39.6°F4.2°C 34.2°F1.2°C 81% 3.1 mph SW5.0 kmh SW 11.4 mph18.3 kmh 29.48 in998.3 mb 0.00 in0.0 mm 0.00 in0.0 mm 0.60 in15.2 mm
10:45 PM 39.6°F4.2°C 34.2°F1.2°C 81% 6.0 mph SSW9.7 kmh SSW 11.4 mph18.3 kmh 29.49 in998.6 mb 0.00 in0.0 mm 0.00 in0.0 mm 0.60 in15.2 mm
10:50 PM 39.7°F4.3°C 34.4°F1.3°C 81% 6.0 mph SW9.7 kmh SW 13.6 mph21.9 kmh 29.49 in998.6 mb 0.00 in0.0 mm 0.00 in0.0 mm 0.60 in15.2 mm
10:55 PM 39.7°F4.3°C 34.1°F1.2°C 80% 8.3 mph SSW13.4 kmh SSW 13.6 mph21.9 kmh 29.50 in999.0 mb 0.00 in0.0 mm 0.00 in0.0 mm 0.60 in15.2 mm
11:00 PM 39.9°F4.4°C 34.3°F1.3°C 80% 7.6 mph SW12.2 kmh SW 13.0 mph20.9 kmh 29.50 in999.0 mb 0.00 in0.0 mm 0.00 in0.0 mm 0.60 in15.2 mm
11:05 PM 39.9°F4.4°C 33.9°F1.1°C 79% 7.6 mph WSW12.2 kmh WSW 13.0 mph20.9 kmh 29.50 in999.0 mb 0.00 in0.0 mm 0.00 in0.0 mm 0.60 in15.2 mm
11:10 PM 39.9°F4.4°C 33.9°F1.1°C 79% 4.5 mph W7.2 kmh W 15.2 mph24.5 kmh 29.51 in999.3 mb 0.00 in0.0 mm 0.00 in0.0 mm 0.60 in15.2 mm
11:15 PM 39.7°F4.3°C 34.1°F1.2°C 80% 5.4 mph WNW8.7 kmh WNW 15.2 mph24.5 kmh 29.52 in999.7 mb 0.00 in0.0 mm 0.00 in0.0 mm 0.60 in15.2 mm
11:20 PM 39.7°F4.3°C 34.1°F1.2°C 80% 5.4 mph WNW8.7 kmh WNW 9.8 mph15.8 kmh 29.52 in999.7 mb 0.00 in0.0 mm 0.00 in0.0 mm 0.60 in15.2 mm
11:25 PM 39.7°F4.3°C 34.1°F1.2°C 80% 5.4 mph W8.7 kmh W 9.8 mph15.8 kmh 29.52 in999.7 mb 0.00 in0.0 mm 0.00 in0.0 mm 0.60 in15.2 mm
11:30 PM 39.6°F4.2°C 34.2°F1.2°C 81% 6.9 mph W11.1 kmh W 17.4 mph28.0 kmh 29.52 in999.7 mb 0.00 in0.0 mm 0.00 in0.0 mm 0.60 in15.2 mm
11:35 PM 39.6°F4.2°C 34.2°F1.2°C 81% 5.4 mph WNW8.7 kmh WNW 17.4 mph28.0 kmh 29.52 in999.7 mb 0.00 in0.0 mm 0.00 in0.0 mm 0.60 in15.2 mm
11:40 PM 39.2°F4.0°C 33.9°F1.1°C 81% 6.0 mph W9.7 kmh W 11.4 mph18.3 kmh 29.53 in1000.0 mb 0.00 in0.0 mm 0.00 in0.0 mm 0.60 in15.2 mm
11:45 PM 38.8°F3.8°C 33.8°F1.0°C 82% 8.3 mph WSW13.4 kmh WSW 13.0 mph20.9 kmh 29.53 in1000.0 mb 0.00 in0.0 mm 0.00 in0.0 mm 0.60 in15.2 mm
11:50 PM 38.7°F3.7°C 34.0°F1.1°C 83% 9.2 mph WSW14.8 kmh WSW 14.5 mph23.3 kmh 29.54 in1000.3 mb 0.00 in0.0 mm 0.00 in0.0 mm 0.60 in15.2 mm
11:55 PM 38.7°F3.7°C 34.0°F1.1°C 83% 9.8 mph WSW15.8 kmh WSW 14.5 mph23.3 kmh 29.54 in1000.3 mb 0.00 in0.0 mm 0.00 in0.0 mm 0.60 in15.2 mm